Time;durP1;ratioP1;P1;durP2;ratioP2;P2;SDS_P1;SDS_P2;PMS_P1;PMS_P2;Temp;Humidity;BMP_temperature;BMP_pressure;BME280_temperature;BME280_humidity;BME280_pressure;Samples;Min_cycle;Max_cycle;Signal;HPM_P1;HPM_P2
2022/01/19 00:00:07;;;;;;;26.85;13.25;;;3.60;99.90;;;;;;6278950;22;20427;-61
2022/01/19 00:02:33;;;;;;;30.52;14.70;;;3.70;99.90;;;;;;6277794;22;20186;-60
2022/01/19 00:04:58;;;;;;;26.02;13.20;;;3.70;99.90;;;;;;6277800;22;20140;-60
2022/01/19 00:07:24;;;;;;;26.30;13.27;;;3.70;99.90;;;;;;6277766;22;20140;-60
2022/01/19 00:09:49;;;;;;;25.73;13.23;;;3.70;99.90;;;;;;6277664;22;20205;-61
2022/01/19 00:12:15;;;;;;;27.08;13.48;;;3.80;99.90;;;;;;6277020;22;20927;-60
2022/01/19 00:14:40;;;;;;;27.10;12.90;;;3.80;99.90;;;;;;6276875;22;20556;-60
2022/01/19 00:17:06;;;;;;;23.83;12.93;;;3.80;99.90;;;;;;6277793;22;20547;-62
2022/01/19 00:19:31;;;;;;;24.00;13.10;;;3.90;99.90;;;;;;6278730;22;20164;-61
2022/01/19 00:21:57;;;;;;;22.70;13.25;;;3.90;99.90;;;;;;6279405;22;20153;-61
2022/01/19 00:24:22;;;;;;;23.10;12.30;;;3.90;99.90;;;;;;6279025;22;20557;-61
2022/01/19 00:26:48;;;;;;;23.48;12.93;;;3.90;99.90;;;;;;6279093;22;20140;-61
2022/01/19 00:29:13;;;;;;;23.92;11.95;;;3.90;99.90;;;;;;6278769;22;20148;-61
2022/01/19 00:31:39;;;;;;;25.75;12.88;;;4.00;99.90;;;;;;6278767;22;20450;-61
2022/01/19 00:34:04;;;;;;;23.67;12.70;;;4.00;99.90;;;;;;6278748;22;20151;-61
2022/01/19 00:36:30;;;;;;;24.83;12.68;;;4.00;99.90;;;;;;6278799;22;20147;-61
2022/01/19 00:38:56;;;;;;;20.80;11.80;;;4.00;99.90;;;;;;6278698;22;20171;-61
2022/01/19 00:41:21;;;;;;;24.10;12.27;;;4.10;99.90;;;;;;6278778;22;20214;-62
2022/01/19 00:43:47;;;;;;;21.85;11.50;;;4.10;99.90;;;;;;6279067;22;20216;-61
2022/01/19 00:46:12;;;;;;;18.52;10.98;;;4.10;99.90;;;;;;6278698;22;20132;-62
2022/01/19 00:48:40;;;;;;;21.67;12.27;;;4.10;99.90;;;;;;6278696;22;20161;-62
2022/01/19 00:51:06;;;;;;;23.42;11.57;;;4.10;99.90;;;;;;6278936;22;20148;-62
2022/01/19 00:53:31;;;;;;;17.95;11.50;;;4.10;99.90;;;;;;6278629;22;20443;-62
2022/01/19 00:55:57;;;;;;;21.17;12.20;;;4.10;99.90;;;;;;6278874;22;20150;-62
2022/01/19 00:58:22;;;;;;;20.42;11.60;;;4.10;99.90;;;;;;6278512;22;20177;-61
2022/01/19 01:00:48;;;;;;;22.00;12.30;;;4.10;99.90;;;;;;6278732;22;20160;-61
2022/01/19 01:03:13;;;;;;;21.38;11.23;;;4.20;99.90;;;;;;6278427;22;20209;-60
2022/01/19 01:05:39;;;;;;;21.73;12.05;;;4.10;99.90;;;;;;6278478;22;20143;-61
2022/01/19 01:08:05;;;;;;;25.17;12.38;;;4.10;99.90;;;;;;6278436;22;20186;-62
2022/01/19 01:10:32;;;;;;;21.15;12.55;;;4.20;99.90;;;;;;6278414;22;20437;-61
2022/01/19 01:13:16;;;;;;;18.88;10.75;;;4.10;99.90;;;;;;6278637;22;20152;-61
2022/01/19 01:16:00;;;;;;;22.05;12.50;;;4.10;99.90;;;;;;6278661;22;20288;-62
2022/01/19 01:18:27;;;;;;;21.98;12.20;;;4.20;99.90;;;;;;6278444;22;20159;-60
2022/01/19 01:20:54;;;;;;;26.05;13.63;;;4.20;99.90;;;;;;6278192;22;20156;-61
2022/01/19 01:23:22;;;;;;;23.75;13.05;;;4.20;99.90;;;;;;6278230;22;20148;-60
2022/01/19 01:25:48;;;;;;;21.15;12.82;;;4.20;99.90;;;;;;6279189;22;20202;-60
2022/01/19 01:28:14;;;;;;;26.35;13.43;;;4.20;99.90;;;;;;6277940;22;20147;-60
2022/01/19 01:30:40;;;;;;;19.45;12.30;;;4.20;99.90;;;;;;6278340;22;20140;-60
2022/01/19 01:33:06;;;;;;;22.95;13.25;;;4.20;99.90;;;;;;6278139;22;20200;-60
2022/01/19 01:35:31;;;;;;;22.63;13.27;;;4.20;99.90;;;;;;6278148;22;20171;-60
2022/01/19 01:37:57;;;;;;;25.83;14.48;;;4.30;99.90;;;;;;6278369;22;20221;-61
2022/01/19 01:40:25;;;;;;;24.45;14.55;;;4.30;99.90;;;;;;6277983;22;20135;-61
2022/01/19 01:42:52;;;;;;;26.23;14.75;;;4.30;99.90;;;;;;6278345;22;20234;-61
2022/01/19 01:45:23;;;;;;;28.73;15.23;;;4.30;99.90;;;;;;6277914;22;20182;-61
2022/01/19 01:47:54;;;;;;;23.55;14.02;;;4.30;99.90;;;;;;6278130;22;20185;-61
2022/01/19 01:53:26;;;;;;;27.92;14.57;;;4.30;99.90;;;;;;6278150;22;20135;-60
2022/01/19 01:55:57;;;;;;;26.90;14.40;;;4.20;99.90;;;;;;6278569;22;20143;-60
2022/01/19 01:58:22;;;;;;;25.17;14.80;;;4.20;99.90;;;;;;6277921;22;20572;-61
2022/01/19 02:00:48;;;;;;;23.58;12.85;;;4.20;99.90;;;;;;6278174;22;20146;-60
2022/01/19 02:03:14;;;;;;;27.55;14.57;;;4.20;99.90;;;;;;6278412;22;20197;-60
2022/01/19 02:05:53;;;;;;;27.67;13.55;;;4.20;99.90;;;;;;6277895;22;20163;-60
2022/01/19 02:08:22;;;;;;;23.65;13.18;;;4.20;99.90;;;;;;6278154;22;20181;-60
2022/01/19 02:21:59;;;;;;;24.25;14.00;;;4.20;99.90;;;;;;6251945;22;20456;-60
2022/01/19 02:24:31;;;;;;;27.83;14.10;;;4.20;99.90;;;;;;6277949;22;20201;-61
2022/01/19 02:28:57;;;;;;;24.52;13.98;;;4.20;99.90;;;;;;6278222;22;20136;-61
2022/01/19 02:40:50;;;;;;;26.38;14.75;;;4.20;99.90;;;;;;6254664;22;20135;-61
2022/01/19 02:43:24;;;;;;;27.00;15.55;;;4.20;99.90;;;;;;6277813;22;20154;-59
2022/01/19 02:51:18;;;;;;;32.75;17.13;;;4.20;99.90;;;;;;6278012;22;20427;-62
2022/01/19 02:53:44;;;;;;;35.35;17.95;;;4.20;99.90;;;;;;6250756;22;20175;-62
2022/01/19 02:56:15;;;;;;;39.53;19.77;;;4.20;99.90;;;;;;6277293;22;20151;-62
2022/01/19 02:58:52;;;;;;;37.60;20.08;;;4.20;99.90;;;;;;6277772;22;20168;-62
2022/01/19 03:09:23;;;;;;;36.85;20.67;;;4.20;99.90;;;;;;6277520;22;20205;-61
2022/01/19 03:11:48;;;;;;;36.78;19.67;;;4.20;99.90;;;;;;6277432;22;20566;-61
2022/01/19 03:14:14;;;;;;;42.03;20.17;;;4.20;99.90;;;;;;6277276;22;20167;-59
2022/01/19 03:16:39;;;;;;;39.92;19.38;;;4.20;99.90;;;;;;6277258;22;20201;-59
2022/01/19 03:19:07;;;;;;;40.72;19.70;;;4.20;99.90;;;;;;6277106;22;20217;-62
2022/01/19 03:21:33;;;;;;;36.88;18.40;;;4.30;99.90;;;;;;6277003;22;20163;-61
2022/01/19 03:23:59;;;;;;;34.33;17.67;;;4.20;99.90;;;;;;6277105;22;20231;-61
2022/01/19 03:26:25;;;;;;;34.95;18.98;;;4.30;99.90;;;;;;6277015;22;20136;-61
2022/01/19 03:28:51;;;;;;;34.00;18.45;;;4.20;99.90;;;;;;6277409;22;20586;-59
2022/01/19 03:31:16;;;;;;;35.38;18.45;;;4.20;99.90;;;;;;6277074;22;20143;-62
2022/01/19 03:33:42;;;;;;;33.17;18.42;;;4.20;99.90;;;;;;6277144;22;20139;-59
2022/01/19 03:36:07;;;;;;;31.17;16.95;;;4.20;99.90;;;;;;6277319;22;20148;-61
2022/01/19 03:38:33;;;;;;;30.20;16.55;;;4.20;99.90;;;;;;6277062;22;20163;-62
2022/01/19 03:40:58;;;;;;;30.20;16.02;;;4.20;99.90;;;;;;6277221;22;20143;-59
2022/01/19 03:43:24;;;;;;;31.20;16.83;;;4.20;99.90;;;;;;6277123;22;20162;-62
2022/01/19 03:45:52;;;;;;;32.95;16.80;;;4.20;99.90;;;;;;6277428;22;20243;-62
2022/01/19 03:48:34;;;;;;;34.85;17.13;;;4.20;99.90;;;;;;6250298;22;20576;-61
2022/01/19 03:51:00;;;;;;;30.42;16.52;;;4.20;99.90;;;;;;6278189;22;20139;-61
2022/01/19 03:53:26;;;;;;;31.95;16.33;;;4.20;99.90;;;;;;6279144;22;20170;-61
2022/01/19 03:55:51;;;;;;;35.03;16.30;;;4.20;99.90;;;;;;6252621;22;20434;-61
2022/01/19 03:58:17;;;;;;;33.70;16.70;;;4.20;99.90;;;;;;6279017;22;20465;-61
2022/01/19 04:00:44;;;;;;;31.73;16.42;;;4.20;99.90;;;;;;6278952;22;20142;-60
2022/01/19 04:03:13;;;;;;;31.45;16.55;;;4.20;99.90;;;;;;6278906;22;20459;-61
2022/01/19 04:08:16;;;;;;;30.95;16.40;;;4.10;99.90;;;;;;6279495;22;20166;-61
2022/01/19 04:10:42;;;;;;;33.67;17.63;;;4.20;99.90;;;;;;6279165;22;20148;-60
2022/01/19 04:13:23;;;;;;;31.67;15.75;;;4.20;99.90;;;;;;6279156;22;20154;-61
2022/01/19 04:15:50;;;;;;;29.73;15.15;;;4.10;99.90;;;;;;6279167;22;20136;-60
2022/01/19 04:18:16;;;;;;;27.90;14.43;;;4.10;99.90;;;;;;6279064;22;20186;-62
2022/01/19 04:20:43;;;;;;;29.48;13.50;;;4.10;99.90;;;;;;6278798;22;20155;-62
2022/01/19 04:23:09;;;;;;;28.23;13.63;;;4.10;99.90;;;;;;6278876;22;20519;-62
2022/01/19 04:25:35;;;;;;;31.48;14.60;;;4.10;99.90;;;;;;6279176;22;20143;-61
2022/01/19 04:28:07;;;;;;;27.50;13.52;;;4.10;99.90;;;;;;6279206;22;20447;-62
2022/01/19 04:30:33;;;;;;;25.27;12.85;;;4.10;99.90;;;;;;6278680;22;20657;-61
2022/01/19 04:35:27;;;;;;;26.58;12.77;;;4.10;99.90;;;;;;6279084;22;20144;-61
2022/01/19 04:38:18;;;;;;;24.80;12.95;;;4.10;99.90;;;;;;6278995;22;20144;-61
2022/01/19 04:54:20;;;;;;;24.90;12.00;;;3.90;99.90;;;;;;6280518;22;20562;-60
2022/01/19 04:54:53;;;;;;;25.10;12.18;;;3.90;99.90;;;;;;6279369;22;20159;-59
2022/01/19 05:05:27;;;;;;;20.20;11.38;;;3.80;99.90;;;;;;6279136;22;20144;-60
2022/01/19 05:08:09;;;;;;;20.50;10.65;;;3.80;99.90;;;;;;6279219;22;20127;-60
2022/01/19 05:13:50;;;;;;;21.60;10.60;;;3.90;99.90;;;;;;6288452;22;20135;-61
2022/01/19 05:15:59;;;;;;;21.85;10.23;;;3.90;99.90;;;;;;6276477;22;20204;-61
2022/01/19 05:18:25;;;;;;;21.52;10.70;;;4.00;99.90;;;;;;6287998;22;20178;-61
2022/01/19 05:20:51;;;;;;;19.65;10.18;;;4.00;99.90;;;;;;6286681;22;20163;-61
2022/01/19 05:23:17;;;;;;;18.30;9.40;;;4.00;99.90;;;;;;6292831;22;20159;-61
2022/01/19 05:25:43;;;;;;;17.88;10.02;;;4.10;99.90;;;;;;6291871;22;20195;-61
2022/01/19 05:28:08;;;;;;;21.25;10.23;;;4.10;99.90;;;;;;6292238;22;20227;-61
2022/01/19 05:30:34;;;;;;;16.40;9.20;;;4.10;99.90;;;;;;6291442;22;20143;-61
2022/01/19 05:32:59;;;;;;;17.13;9.38;;;4.10;99.90;;;;;;6286200;22;20144;-61
2022/01/19 05:35:27;;;;;;;20.25;9.38;;;4.00;99.90;;;;;;6283562;22;20140;-61
2022/01/19 05:37:53;;;;;;;18.75;9.57;;;4.00;99.90;;;;;;6281474;22;20151;-61
2022/01/19 05:40:18;;;;;;;19.63;9.82;;;4.00;99.90;;;;;;6281021;22;20577;-61
2022/01/19 05:42:47;;;;;;;18.00;9.73;;;4.10;99.90;;;;;;6279385;22;20170;-60
2022/01/19 05:45:13;;;;;;;17.35;9.35;;;4.10;99.90;;;;;;6280324;22;20147;-60
2022/01/19 05:47:38;;;;;;;15.98;8.63;;;4.00;99.90;;;;;;6281184;22;20454;-61
2022/01/19 05:50:04;;;;;;;18.77;9.32;;;4.00;99.90;;;;;;6252954;22;20497;-60
2022/01/19 05:52:30;;;;;;;15.88;9.20;;;4.00;99.90;;;;;;6278231;22;20643;-59
2022/01/19 05:54:55;;;;;;;16.55;9.50;;;4.00;99.90;;;;;;6278039;22;20220;-60
2022/01/19 05:57:21;;;;;;;15.82;8.43;;;3.90;99.90;;;;;;6277809;22;20447;-60
2022/01/19 05:59:47;;;;;;;17.80;8.52;;;3.90;99.90;;;;;;6278195;22;20164;-60
2022/01/19 06:02:12;;;;;;;15.13;8.27;;;3.80;99.90;;;;;;6278205;22;20496;-61
2022/01/19 06:04:38;;;;;;;16.48;8.23;;;3.70;99.90;;;;;;6251206;22;20140;-61
2022/01/19 06:07:04;;;;;;;15.90;8.27;;;3.70;99.90;;;;;;6277680;22;20140;-60
2022/01/19 06:09:34;;;;;;;14.68;8.65;;;3.60;99.90;;;;;;6278072;22;20162;-61
2022/01/19 06:12:08;;;;;;;16.48;9.07;;;3.60;99.90;;;;;;6278159;22;20456;-60
2022/01/19 06:14:34;;;;;;;18.13;8.68;;;3.50;99.90;;;;;;6278040;22;20527;-61
2022/01/19 06:17:00;;;;;;;18.67;9.60;;;3.50;99.90;;;;;;6277730;22;20177;-61
2022/01/19 06:19:26;;;;;;;15.00;7.97;;;3.50;99.90;;;;;;6277922;22;20537;-61
2022/01/19 06:21:51;;;;;;;16.98;9.07;;;3.40;99.90;;;;;;6277592;22;20155;-60
2022/01/19 06:24:17;;;;;;;19.10;9.25;;;3.40;99.90;;;;;;6277531;22;20145;-59
2022/01/19 06:26:42;;;;;;;16.65;8.63;;;3.40;99.90;;;;;;6277546;22;20551;-59
2022/01/19 06:29:08;;;;;;;19.02;9.68;;;3.40;99.90;;;;;;6277714;22;20205;-61
2022/01/19 06:31:33;;;;;;;17.88;8.77;;;3.40;99.90;;;;;;6277702;22;20150;-61
2022/01/19 06:33:59;;;;;;;18.80;9.77;;;3.40;99.90;;;;;;6277578;22;20147;-60
2022/01/19 06:36:24;;;;;;;16.95;8.90;;;3.30;99.90;;;;;;6277557;22;20222;-61
2022/01/19 06:38:50;;;;;;;19.50;9.15;;;3.40;99.90;;;;;;6277348;22;20167;-61
2022/01/19 06:41:15;;;;;;;19.27;8.70;;;3.30;99.90;;;;;;6277718;22;20136;-61
2022/01/19 06:43:41;;;;;;;20.75;9.45;;;3.30;99.90;;;;;;6276195;22;20144;-60
2022/01/19 06:46:06;;;;;;;17.98;8.98;;;3.30;99.90;;;;;;6277625;22;20150;-61
2022/01/19 06:48:32;;;;;;;17.75;8.75;;;3.30;99.90;;;;;;6277606;22;20509;-62
2022/01/19 06:50:58;;;;;;;20.77;9.40;;;3.30;99.90;;;;;;6277921;22;20147;-62
2022/01/19 06:53:23;;;;;;;16.13;8.25;;;3.30;99.90;;;;;;6275913;22;20151;-61
2022/01/19 06:55:49;;;;;;;17.60;8.18;;;3.30;99.90;;;;;;6277376;22;20571;-62
2022/01/19 06:58:15;;;;;;;16.60;8.13;;;3.30;99.90;;;;;;6277326;22;20252;-60
2022/01/19 07:00:40;;;;;;;15.95;8.48;;;3.30;99.90;;;;;;6277296;22;20136;-61
2022/01/19 07:03:06;;;;;;;16.90;8.20;;;3.20;99.90;;;;;;6277459;22;20158;-61
2022/01/19 07:05:32;;;;;;;19.35;9.48;;;3.20;99.90;;;;;;6277328;22;20614;-61
2022/01/19 07:07:57;;;;;;;16.65;8.68;;;3.10;99.90;;;;;;6277543;22;20150;-61
2022/01/19 07:10:24;;;;;;;18.40;8.00;;;3.00;99.90;;;;;;6277492;22;20497;-61
2022/01/19 07:12:50;;;;;;;19.80;9.75;;;3.00;99.90;;;;;;6277580;22;20159;-60
2022/01/19 07:15:16;;;;;;;22.15;9.73;;;2.90;99.90;;;;;;6277483;22;20144;-60
2022/01/19 07:17:41;;;;;;;18.92;9.43;;;2.90;99.90;;;;;;6277349;22;20154;-61
2022/01/19 07:20:07;;;;;;;19.75;9.75;;;2.80;99.90;;;;;;6277060;22;20159;-61
2022/01/19 07:22:33;;;;;;;21.10;9.70;;;2.80;99.90;;;;;;6277399;22;20448;-59
2022/01/19 07:24:59;;;;;;;20.13;10.00;;;2.80;99.90;;;;;;6277065;22;20150;-62
2022/01/19 07:27:25;;;;;;;20.42;9.32;;;2.80;99.90;;;;;;6277417;22;20140;-61
2022/01/19 07:29:51;;;;;;;23.55;10.75;;;2.70;99.90;;;;;;6277096;22;20151;-60
2022/01/19 07:32:16;;;;;;;22.20;9.90;;;2.80;99.90;;;;;;6277136;22;20496;-60
2022/01/19 07:34:42;;;;;;;21.40;9.52;;;2.80;99.90;;;;;;6277061;22;20150;-60
2022/01/19 07:37:08;;;;;;;18.48;9.48;;;2.80;99.90;;;;;;6278104;22;20152;-60
2022/01/19 07:39:33;;;;;;;21.55;9.48;;;2.90;99.90;;;;;;6277512;22;20167;-61
2022/01/19 07:41:59;;;;;;;20.08;9.00;;;2.90;99.90;;;;;;6277721;22;20151;-61
2022/01/19 07:44:25;;;;;;;20.50;10.05;;;3.00;99.90;;;;;;6277375;22;20139;-60
2022/01/19 07:46:51;;;;;;;20.67;9.98;;;3.00;99.90;;;;;;6277361;22;20150;-64
2022/01/19 07:49:17;;;;;;;19.48;9.38;;;3.00;99.90;;;;;;6278569;22;20222;-59
2022/01/19 07:51:43;;;;;;;18.05;8.80;;;3.00;99.90;;;;;;6278694;22;20171;-60
2022/01/19 07:54:08;;;;;;;20.38;9.88;;;3.10;99.90;;;;;;6277258;22;20559;-60
2022/01/19 07:56:34;;;;;;;18.92;9.00;;;3.10;99.90;;;;;;6277342;22;20177;-60
2022/01/19 07:58:59;;;;;;;21.52;9.75;;;3.20;99.90;;;;;;6276940;22;20701;-60
2022/01/19 08:01:27;;;;;;;18.65;8.75;;;3.20;99.90;;;;;;6250715;22;20140;-60
2022/01/19 08:03:53;;;;;;;21.52;9.35;;;3.20;99.90;;;;;;6277398;22;20197;-59
2022/01/19 08:06:18;;;;;;;21.27;9.35;;;3.30;99.90;;;;;;6277134;22;20143;-60
2022/01/19 08:08:44;;;;;;;21.45;9.35;;;3.30;99.90;;;;;;6250322;22;20143;-60
2022/01/19 08:11:09;;;;;;;17.50;8.82;;;3.30;99.90;;;;;;6276930;22;20256;-60
2022/01/19 08:13:35;;;;;;;17.65;9.25;;;3.40;99.90;;;;;;6277327;22;20151;-59
2022/01/19 08:16:00;;;;;;;17.85;8.70;;;3.40;99.90;;;;;;6277093;22;20513;-61
2022/01/19 08:18:26;;;;;;;22.70;10.52;;;3.40;99.90;;;;;;6277475;22;20182;-61
2022/01/19 08:20:51;;;;;;;19.25;9.43;;;3.50;99.90;;;;;;6277194;22;20158;-58
2022/01/19 08:23:17;;;;;;;18.08;9.40;;;3.50;99.90;;;;;;6277330;22;20551;-61
2022/01/19 08:25:42;;;;;;;21.25;10.32;;;3.50;99.90;;;;;;6276773;22;20201;-61
2022/01/19 08:28:08;;;;;;;22.92;10.50;;;3.50;99.90;;;;;;6276831;22;20147;-62
2022/01/19 08:30:34;;;;;;;21.45;11.00;;;3.50;99.90;;;;;;6277419;22;20158;-61
2022/01/19 08:32:59;;;;;;;19.00;10.15;;;3.60;99.90;;;;;;6276980;22;20151;-61
2022/01/19 08:35:25;;;;;;;19.40;9.55;;;3.50;99.90;;;;;;6277307;22;20181;-60
2022/01/19 08:37:50;;;;;;;18.25;9.93;;;3.60;99.90;;;;;;6277203;22;20198;-60
2022/01/19 08:40:16;;;;;;;21.10;10.23;;;3.60;99.90;;;;;;6279269;22;20211;-60
2022/01/19 08:42:41;;;;;;;19.30;9.85;;;3.60;99.90;;;;;;6278775;22;20548;-60
2022/01/19 08:45:08;;;;;;;20.20;10.45;;;3.60;99.90;;;;;;6279019;22;20214;-60
2022/01/19 08:47:36;;;;;;;21.90;11.50;;;3.60;99.90;;;;;;6279017;22;20164;-61
2022/01/19 08:50:06;;;;;;;21.15;10.20;;;3.60;99.90;;;;;;6278593;22;20154;-60
2022/01/19 08:52:33;;;;;;;17.95;9.13;;;3.60;99.90;;;;;;6252130;22;20135;-59
2022/01/19 08:54:58;;;;;;;19.02;9.63;;;3.50;99.90;;;;;;6278605;22;20152;-60
2022/01/19 08:57:25;;;;;;;20.73;10.60;;;3.50;99.90;;;;;;6278821;22;20214;-60
2022/01/19 08:59:50;;;;;;;16.02;8.95;;;3.50;99.90;;;;;;6278807;22;20171;-60
2022/01/19 09:02:16;;;;;;;19.60;10.05;;;3.60;99.90;;;;;;6279143;22;20170;-59
2022/01/19 09:04:41;;;;;;;23.95;9.60;;;3.70;99.90;;;;;;6278581;22;20158;-60
2022/01/19 09:07:07;;;;;;;17.13;9.18;;;3.70;99.90;;;;;;6278661;22;20444;-60
2022/01/19 09:09:32;;;;;;;20.35;10.45;;;3.70;99.90;;;;;;6278228;22;20143;-60
2022/01/19 09:11:58;;;;;;;18.05;9.57;;;3.80;99.90;;;;;;6278632;22;20151;-60
2022/01/19 09:14:23;;;;;;;20.38;9.23;;;3.90;99.90;;;;;;6278403;22;20147;-60
2022/01/19 09:16:49;;;;;;;22.40;9.40;;;3.90;99.90;;;;;;6278862;22;20144;-61
2022/01/19 09:19:16;;;;;;;15.98;9.70;;;3.90;99.90;;;;;;6279053;22;20181;-60
2022/01/19 09:21:41;;;;;;;18.60;9.40;;;4.00;99.90;;;;;;6278617;22;20213;-58
2022/01/19 09:24:09;;;;;;;20.40;9.32;;;4.00;99.90;;;;;;6285029;22;20147;-61
2022/01/19 09:26:35;;;;;;;15.35;8.95;;;4.10;99.90;;;;;;6284815;22;20151;-61
2022/01/19 09:29:00;;;;;;;17.95;9.18;;;4.10;99.90;;;;;;6285283;22;20151;-61
2022/01/19 09:31:26;;;;;;;18.92;9.57;;;4.20;99.90;;;;;;6285829;22;20147;-61
2022/01/19 09:33:56;;;;;;;15.65;8.93;;;4.20;99.90;;;;;;6287617;22;20602;-61
2022/01/19 09:36:33;;;;;;;20.52;9.32;;;4.20;99.90;;;;;;6290293;22;20528;-61
2022/01/19 09:38:59;;;;;;;18.23;9.27;;;4.30;99.90;;;;;;6290206;22;20163;-61
2022/01/19 09:41:25;;;;;;;15.52;8.10;;;4.30;99.90;;;;;;6290331;22;20163;-62
2022/01/19 09:43:51;;;;;;;18.17;8.75;;;4.40;99.90;;;;;;6293697;22;20143;-62
2022/01/19 09:46:17;;;;;;;18.25;8.82;;;4.40;99.90;;;;;;6298358;22;20144;-61
2022/01/19 09:48:43;;;;;;;18.55;9.20;;;4.50;99.90;;;;;;6299136;22;20153;-61
2022/01/19 09:51:09;;;;;;;17.50;9.25;;;4.60;99.90;;;;;;6299084;22;20144;-61
2022/01/19 09:53:35;;;;;;;18.10;9.20;;;4.60;99.90;;;;;;6295544;22;20143;-61
2022/01/19 09:56:02;;;;;;;17.70;9.20;;;4.60;99.90;;;;;;6285676;22;20181;-61
2022/01/19 09:58:28;;;;;;;16.58;9.23;;;4.60;99.90;;;;;;6278061;22;20526;-61
2022/01/19 10:00:53;;;;;;;18.50;9.95;;;4.70;99.90;;;;;;6278078;22;20136;-61
2022/01/19 10:03:24;;;;;;;15.63;8.52;;;4.70;99.90;;;;;;6278161;22;20544;-61
2022/01/19 10:06:07;;;;;;;17.42;8.98;;;4.70;99.90;;;;;;6277872;22;20146;-61
2022/01/19 10:08:42;;;;;;;19.27;9.82;;;4.70;99.90;;;;;;6278377;22;20139;-61
2022/01/19 10:16:58;;;;;;;17.55;9.52;;;4.70;99.90;;;;;;6251275;22;20151;-61
2022/01/19 10:17:08;;;;;;;17.98;9.80;;;4.80;99.90;;;;;;6277667;22;20134;-60
2022/01/19 10:19:43;;;;;;;17.52;9.90;;;4.80;99.90;;;;;;6278069;22;20163;-61
2022/01/19 10:22:10;;;;;;;19.88;9.75;;;4.90;99.90;;;;;;6277900;22;20192;-61
2022/01/19 10:24:47;;;;;;;21.00;10.15;;;5.00;99.90;;;;;;6277662;22;20551;-62
2022/01/19 10:27:35;;;;;;;17.45;10.20;;;5.00;99.90;;;;;;6277929;22;20134;-61
2022/01/19 10:30:04;;;;;;;17.85;9.02;;;5.10;99.90;;;;;;6277661;22;20151;-62
2022/01/19 10:32:35;;;;;;;16.27;9.10;;;5.20;99.90;;;;;;6278011;22;20148;-61
2022/01/19 10:35:18;;;;;;;19.50;9.77;;;5.20;99.90;;;;;;6277650;22;20171;-61
2022/01/19 10:37:45;;;;;;;17.90;9.10;;;5.30;99.90;;;;;;6277857;22;20223;-61
2022/01/19 10:40:14;;;;;;;18.45;9.27;;;5.30;99.90;;;;;;6278110;22;20602;-60
2022/01/19 10:42:40;;;;;;;20.27;9.93;;;5.40;99.90;;;;;;6278409;22;20162;-61
2022/01/19 10:45:07;;;;;;;19.73;10.30;;;5.40;99.90;;;;;;6277908;22;20548;-61
2022/01/19 10:47:50;;;;;;;17.35;9.68;;;5.40;99.90;;;;;;6278769;22;20226;-62
2022/01/19 10:50:28;;;;;;;21.98;11.20;;;5.50;99.90;;;;;;6278807;22;20138;-62
2022/01/19 10:52:55;;;;;;;18.77;9.93;;;5.50;99.90;;;;;;6278116;22;20120;-62
2022/01/19 10:55:31;;;;;;;23.05;11.27;;;5.50;99.90;;;;;;6278438;22;20682;-59
2022/01/19 10:57:59;;;;;;;24.23;11.43;;;5.60;99.90;;;;;;6278486;22;20128;-61
2022/01/19 11:00:30;;;;;;;28.95;13.40;;;5.60;99.90;;;;;;6277976;22;20433;-61
2022/01/19 11:03:14;;;;;;;29.98;13.70;;;5.50;99.90;;;;;;6277609;22;20235;-61
2022/01/19 11:05:51;;;;;;;27.73;14.27;;;5.50;99.90;;;;;;6276953;22;20612;-61
2022/01/19 11:08:18;;;;;;;26.23;13.23;;;5.50;99.90;;;;;;6277523;22;20209;-61
2022/01/19 11:10:48;;;;;;;25.73;14.15;;;5.40;99.90;;;;;;6277468;22;20563;-62
2022/01/19 11:13:18;;;;;;;32.35;14.65;;;5.40;99.90;;;;;;6277162;22;20144;-60
2022/01/19 11:15:43;;;;;;;27.25;14.48;;;5.40;99.90;;;;;;6276950;22;20590;-61
2022/01/19 11:18:09;;;;;;;28.92;14.80;;;5.40;99.90;;;;;;6277324;22;20147;-61
2022/01/19 11:20:42;;;;;;;27.10;15.48;;;5.40;99.90;;;;;;6277103;22;20208;-61
2022/01/19 11:23:28;;;;;;;28.63;15.52;;;5.30;99.90;;;;;;6277701;22;20168;-61
2022/01/19 11:25:56;;;;;;;36.65;15.88;;;5.30;99.90;;;;;;6252059;22;20170;-61
2022/01/19 11:28:44;;;;;;;35.00;16.30;;;5.30;99.90;;;;;;6278705;22;20139;-61
2022/01/19 11:31:21;;;;;;;30.27;15.95;;;5.30;99.90;;;;;;6278758;22;20151;-60
2022/01/19 11:33:53;;;;;;;35.90;16.50;;;5.30;99.90;;;;;;6252217;22;20151;-59
2022/01/19 11:36:25;;;;;;;31.75;16.77;;;5.30;99.90;;;;;;6279445;22;20160;-62
2022/01/19 11:39:03;;;;;;;31.52;15.98;;;5.20;99.90;;;;;;6278135;22;20614;-61
2022/01/19 11:41:43;;;;;;;32.08;15.80;;;5.20;99.90;;;;;;6278834;22;20128;-61
2022/01/19 11:44:38;;;;;;;34.67;15.40;;;5.20;99.90;;;;;;6278799;22;20222;-60
2022/01/19 11:47:09;;;;;;;31.75;13.93;;;5.20;99.90;;;;;;6279037;22;20131;-61
2022/01/19 11:49:50;;;;;;;30.58;15.25;;;5.20;99.90;;;;;;6279340;22;20176;-61
2022/01/19 11:52:19;;;;;;;30.83;13.85;;;5.20;99.90;;;;;;6279490;22;20127;-60
2022/01/19 11:54:44;;;;;;;33.17;15.73;;;5.20;99.90;;;;;;6253114;22;20151;-61
2022/01/19 11:57:11;;;;;;;33.20;16.42;;;5.20;99.90;;;;;;6279544;22;20148;-62
2022/01/19 11:59:46;;;;;;;35.63;16.50;;;5.10;99.90;;;;;;6279236;22;20171;-61
2022/01/19 12:02:32;;;;;;;36.47;18.50;;;5.20;99.90;;;;;;6279020;22;20151;-61
2022/01/19 12:05:14;;;;;;;34.83;17.17;;;5.20;99.90;;;;;;6279554;22;20135;-61
2022/01/19 12:07:45;;;;;;;32.67;15.77;;;5.20;99.90;;;;;;6278842;22;20185;-61
2022/01/19 12:10:21;;;;;;;28.75;14.07;;;5.20;99.90;;;;;;6278672;22;20524;-59
2022/01/19 12:16:11;;;;;;;29.70;14.60;;;5.20;99.90;;;;;;6280729;22;20194;-62
2022/01/19 12:18:46;;;;;;;30.40;15.02;;;5.20;99.90;;;;;;6280698;22;20152;-61
2022/01/19 12:21:14;;;;;;;28.00;14.68;;;5.20;99.90;;;;;;6280321;22;20163;-61
2022/01/19 12:23:41;;;;;;;33.92;15.80;;;5.20;99.90;;;;;;6280447;22;20139;-61
2022/01/19 12:26:08;;;;;;;28.83;13.98;;;5.10;99.90;;;;;;6252675;22;20192;-61
2022/01/19 12:28:38;;;;;;;32.25;16.23;;;5.10;99.90;;;;;;6280217;22;20162;-61
2022/01/19 12:31:22;;;;;;;35.78;17.08;;;5.00;99.90;;;;;;6279876;22;20229;-60
2022/01/19 12:34:03;;;;;;;32.15;15.73;;;5.00;99.90;;;;;;6279642;22;20532;-60
2022/01/19 12:36:57;;;;;;;29.10;15.77;;;5.00;99.90;;;;;;6280361;22;20147;-60
2022/01/19 12:39:26;;;;;;;34.20;15.90;;;5.00;99.90;;;;;;6280498;22;20168;-61
2022/01/19 12:42:24;;;;;;;33.20;16.42;;;5.00;99.90;;;;;;6280749;22;20185;-63
2022/01/19 12:44:52;;;;;;;32.70;16.02;;;5.00;99.90;;;;;;6268306;22;20171;-60
2022/01/19 12:47:29;;;;;;;31.45;16.15;;;5.00;99.90;;;;;;6280104;22;20238;-60
2022/01/19 12:49:58;;;;;;;30.90;16.67;;;5.00;99.90;;;;;;6280069;22;20143;-61
2022/01/19 12:52:26;;;;;;;30.85;15.80;;;5.00;99.90;;;;;;6280441;22;20464;-61
2022/01/19 12:54:53;;;;;;;32.70;15.73;;;5.00;99.90;;;;;;6279010;22;20170;-60
2022/01/19 12:57:20;;;;;;;32.42;15.50;;;5.00;99.90;;;;;;6252890;22;20205;-61
2022/01/19 12:59:47;;;;;;;29.27;15.52;;;5.10;99.90;;;;;;6280006;22;20164;-61
2022/01/19 13:02:15;;;;;;;32.60;16.38;;;5.10;99.90;;;;;;6280427;22;20147;-61
2022/01/19 13:04:45;;;;;;;30.85;15.80;;;5.10;99.90;;;;;;6280202;22;20201;-60
2022/01/19 13:07:34;;;;;;;35.47;16.00;;;5.10;99.90;;;;;;6280554;22;20167;-61
2022/01/19 13:10:13;;;;;;;32.50;16.13;;;5.10;99.90;;;;;;6281173;22;20291;-60
2022/01/19 13:12:48;;;;;;;37.10;16.25;;;5.10;99.90;;;;;;6279984;22;20166;-61
2022/01/19 13:15:13;;;;;;;34.35;17.27;;;5.10;99.90;;;;;;6279710;22;20643;-61
2022/01/19 13:17:57;;;;;;;31.75;15.90;;;5.10;99.90;;;;;;6279681;22;20148;-61
2022/01/19 13:20:23;;;;;;;34.47;16.65;;;5.10;99.90;;;;;;6279732;22;20213;-61
2022/01/19 13:22:51;;;;;;;32.55;17.88;;;5.10;99.90;;;;;;6279324;22;20494;-61
2022/01/19 13:25:22;;;;;;;34.67;18.38;;;5.10;99.90;;;;;;6279935;22;20229;-63
2022/01/19 13:27:49;;;;;;;33.33;17.05;;;5.00;99.90;;;;;;6254031;22;20149;-62
2022/01/19 13:30:15;;;;;;;34.97;16.15;;;5.00;99.90;;;;;;6280203;22;20230;-60
2022/01/19 13:32:41;;;;;;;34.35;17.55;;;5.00;99.90;;;;;;6279158;22;20148;-60
2022/01/19 13:35:08;;;;;;;34.55;15.68;;;5.00;99.90;;;;;;6279854;22;20218;-61
2022/01/19 13:37:41;;;;;;;31.13;16.77;;;5.00;99.90;;;;;;6278637;22;20200;-61
2022/01/19 13:40:25;;;;;;;33.55;17.00;;;5.00;99.90;;;;;;6279721;22;20450;-61
2022/01/19 13:42:56;;;;;;;34.13;17.98;;;5.00;99.90;;;;;;6279272;22;20466;-61
2022/01/19 13:46:14;;;;;;;30.80;16.05;;;5.00;99.90;;;;;;6280320;22;20572;-61
2022/01/19 13:50:44;;;;;;;28.13;15.68;;;5.00;99.90;;;;;;6279995;22;20159;-60
2022/01/19 13:53:10;;;;;;;27.05;16.00;;;5.00;99.90;;;;;;6252867;22;20444;-62
2022/01/19 13:55:36;;;;;;;25.05;14.73;;;4.90;99.90;;;;;;6279738;22;20171;-61
2022/01/19 13:58:12;;;;;;;31.02;16.05;;;4.90;99.90;;;;;;6279176;22;20515;-61
2022/01/19 14:00:50;;;;;;;26.10;14.70;;;4.90;99.90;;;;;;6279701;22;20199;-61
2022/01/19 14:03:16;;;;;;;28.95;15.10;;;4.90;99.90;;;;;;6278120;22;20138;-61